Time;durP1;ratioP1;P1;durP2;ratioP2;P2;SDS_P1;SDS_P2;PMS_P1;PMS_P2;Temp;Humidity;BMP_temperature;BMP_pressure;BME280_temperature;BME280_humidity;BME280_pressure;Samples;Min_cycle;Max_cycle;Signal;HPM_P1;HPM_P2
2020/12/20 00:03:10;;;;;;;47.33;19.50;;;;;;;6.02;70.07;101835.12;1818273;79;22005;-44
2020/12/20 00:05:38;;;;;;;44.90;18.37;;;;;;;5.98;70.06;101840.59;1791372;80;20934;-43
2020/12/20 00:08:06;;;;;;;42.00;18.52;;;;;;;5.95;70.11;101840.49;1791261;80;21583;-44
2020/12/20 00:10:34;;;;;;;45.35;19.57;;;;;;;5.97;70.12;101845.17;1791314;80;21508;-43
2020/12/20 00:13:01;;;;;;;50.38;20.82;;;;;;;5.97;70.12;101845.17;1791268;80;20966;-42
2020/12/20 00:15:31;;;;;;;48.13;20.57;;;;;;;6.00;70.20;101848.52;1791251;80;20903;-45
2020/12/20 00:17:59;;;;;;;48.45;20.08;;;;;;;6.00;70.20;101848.52;1791292;80;20990;-44
2020/12/20 00:20:26;;;;;;;46.83;19.73;;;;;;;6.03;70.20;101850.81;1791264;80;21835;-44
2020/12/20 00:22:54;;;;;;;46.68;19.55;;;;;;;6.04;70.13;101845.23;1791207;80;20966;-43
2020/12/20 00:25:21;;;;;;;49.98;20.12;;;;;;;6.06;70.09;101849.08;1736075;80;21506;-44
2020/12/20 00:27:49;;;;;;;48.33;20.45;;;;;;;6.06;70.01;101849.91;1791258;80;21018;-45
2020/12/20 00:30:17;;;;;;;50.15;19.90;;;;;;;6.04;69.99;101851.98;1759505;80;21132;-44
2020/12/20 00:32:45;;;;;;;49.35;19.75;;;;;;;6.04;69.97;101843.05;1791272;80;21198;-43
2020/12/20 00:35:12;;;;;;;45.55;19.67;;;;;;;6.03;69.97;101846.23;1791183;80;21559;-44
2020/12/20 00:37:40;;;;;;;50.60;21.35;;;;;;;6.02;69.99;101849.15;1791264;80;20942;-43
2020/12/20 00:40:07;;;;;;;50.92;22.13;;;;;;;6.01;70.01;101842.91;1791221;80;21009;-44
2020/12/20 00:42:35;;;;;;;46.63;19.52;;;;;;;6.01;70.07;101844.78;1791203;80;21618;-44
2020/12/20 00:45:04;;;;;;;46.90;19.57;;;;;;;6.02;70.14;101839.69;1791236;80;21814;-42
2020/12/20 00:47:33;;;;;;;51.37;19.37;;;;;;;6.00;70.05;101840.42;1783812;80;20971;-44
2020/12/20 00:50:01;;;;;;;51.40;21.55;;;;;;;6.01;70.02;101839.38;1759981;81;20899;-44
2020/12/20 00:52:29;;;;;;;49.93;19.87;;;;;;;6.01;70.01;101837.52;1760029;81;21789;-44
2020/12/20 00:54:57;;;;;;;45.15;20.25;;;;;;;6.01;70.03;101839.38;1759983;81;21144;-44
2020/12/20 00:57:26;;;;;;;40.43;19.37;;;;;;;6.00;69.91;101841.25;1759964;80;21511;-44
2020/12/20 00:59:54;;;;;;;47.90;21.37;;;;;;;6.00;69.91;101841.25;1760031;81;21100;-44
2020/12/20 01:02:22;;;;;;;47.65;21.48;;;;;;;6.02;69.98;101848.62;1746868;81;20960;-44
2020/12/20 01:04:50;;;;;;;45.90;20.43;;;;;;;6.03;70.02;101843.53;1737323;82;21027;-44
2020/12/20 01:07:18;;;;;;;49.27;20.70;;;;;;;6.03;70.01;101842.70;1737363;80;21032;-43
2020/12/20 01:09:47;;;;;;;48.48;19.98;;;;;;;6.04;70.02;101848.45;1737097;82;21623;-44
2020/12/20 01:12:15;;;;;;;49.18;20.50;;;;;;;6.04;69.94;101847.94;1737228;82;21174;-44
2020/12/20 01:15:00;;;;;;;43.47;18.77;;;;;;;6.08;69.92;101841.59;1873614;75;22675;-44
2020/12/20 01:17:29;;;;;;;51.75;19.70;;;;;;;6.04;69.92;101849.80;1841600;77;20927;-45
2020/12/20 01:19:59;;;;;;;46.65;20.62;;;;;;;6.02;69.89;101847.28;1841590;77;21612;-44
2020/12/20 01:22:27;;;;;;;49.45;21.15;;;;;;;6.01;69.92;101845.61;1841498;78;20994;-44
2020/12/20 01:24:55;;;;;;;50.30;21.62;;;;;;;6.01;70.07;101842.08;1841511;77;21414;-44
2020/12/20 01:27:23;;;;;;;50.65;21.12;;;;;;;6.02;69.95;101843.22;1841500;77;20994;-44
2020/12/20 01:29:51;;;;;;;51.15;21.60;;;;;;;6.02;69.95;101843.22;1841531;77;20904;-44
2020/12/20 01:32:19;;;;;;;47.13;20.75;;;;;;;6.04;69.96;101837.13;1841645;77;22137;-44
2020/12/20 01:34:48;;;;;;;46.00;20.97;;;;;;;6.05;69.82;101847.41;1841164;77;20943;-44
2020/12/20 01:37:17;;;;;;;44.65;19.07;;;;;;;6.03;69.95;101848.94;1811139;78;20939;-44
2020/12/20 01:39:47;;;;;;;42.78;19.92;;;;;;;6.02;70.02;101848.62;1841028;77;20939;-44
2020/12/20 01:42:15;;;;;;;48.10;19.15;;;;;;;6.01;69.86;101842.91;1841575;77;21014;-43
2020/12/20 01:44:44;;;;;;;43.98;18.98;;;;;;;6.01;69.86;101842.91;1811239;78;21442;-43
2020/12/20 01:47:12;;;;;;;48.87;20.20;;;;;;;6.01;69.90;101846.97;1838505;77;21022;-43
2020/12/20 01:49:42;;;;;;;50.92;21.20;;;;;;;6.03;69.92;101853.52;1805569;78;20955;-44
2020/12/20 01:52:10;;;;;;;49.23;20.25;;;;;;;6.01;70.00;101849.67;1808559;78;21561;-44
2020/12/20 01:54:38;;;;;;;44.45;19.67;;;;;;;6.01;70.00;101849.67;1808467;79;21474;-43
2020/12/20 01:57:07;;;;;;;45.90;19.98;;;;;;;6.02;69.99;101847.80;1779615;79;21195;-44
2020/12/20 01:59:49;;;;;;;49.67;20.07;;;;;;;6.03;69.97;101838.66;1776882;79;22404;-45
2020/12/20 02:02:20;;;;;;;51.83;19.62;;;;;;;5.99;70.01;101843.64;1749644;82;20930;-45
2020/12/20 02:04:49;;;;;;;45.40;18.90;;;;;;;6.01;70.03;101846.13;1749745;82;22610;-43
2020/12/20 02:07:17;;;;;;;55.10;21.00;;;;;;;5.99;70.08;101849.05;1749573;82;20974;-43
2020/12/20 02:09:46;;;;;;;49.75;21.55;;;;;;;5.99;70.08;101843.64;1749659;82;20928;-44
2020/12/20 02:12:15;;;;;;;54.50;20.43;;;;;;;5.98;70.13;101848.70;1749578;82;20943;-44
2020/12/20 02:14:45;;;;;;;56.08;21.62;;;;;;;6.02;70.15;101852.69;1745641;82;20997;-44
2020/12/20 02:17:14;;;;;;;51.77;21.60;;;;;;;6.02;70.15;101848.62;1749741;82;22329;-43
2020/12/20 02:19:42;;;;;;;56.02;20.90;;;;;;;6.04;70.14;101851.98;1749605;82;21001;-44
2020/12/20 02:22:21;;;;;;;55.70;20.27;;;;;;;6.05;70.00;101851.47;1747827;82;21594;-44
2020/12/20 02:24:50;;;;;;;55.20;22.22;;;;;;;6.06;70.21;101854.48;1749663;80;20926;-43
2020/12/20 02:27:22;;;;;;;58.68;21.35;;;;;;;6.07;70.18;101853.44;1743639;82;21013;-43
2020/12/20 02:29:52;;;;;;;59.65;20.43;;;;;;;6.06;70.13;101859.88;1749625;81;21365;-44
2020/12/20 02:32:20;;;;;;;54.23;20.48;;;;;;;6.06;70.13;101859.88;1749713;82;21661;-44
2020/12/20 02:34:49;;;;;;;61.65;22.58;;;;;;;6.06;70.20;101854.48;1720216;82;20906;-43
2020/12/20 02:37:19;;;;;;;63.00;22.73;;;;;;;6.06;70.20;101854.48;1749569;82;21475;-44
2020/12/20 02:39:55;;;;;;;58.15;22.48;;;;;;;6.08;70.23;101856.45;1749188;82;21009;-44
2020/12/20 02:42:24;;;;;;;58.83;22.17;;;;;;;6.07;70.21;101853.44;1749622;81;21599;-44
2020/12/20 02:44:53;;;;;;;68.97;23.25;;;;;;;6.07;70.26;101855.62;1749602;82;21001;-43
2020/12/20 02:47:21;;;;;;;61.83;22.90;;;;;;;6.07;70.14;101851.57;1745310;82;21326;-45
2020/12/20 02:49:50;;;;;;;54.58;21.42;;;;;;;6.08;70.23;101856.45;1719811;82;21088;-45
2020/12/20 02:52:19;;;;;;;61.95;22.37;;;;;;;6.07;70.17;101851.57;1717788;82;21492;-43
2020/12/20 02:54:49;;;;;;;62.10;23.50;;;;;;;6.06;70.17;101855.83;1719750;83;21280;-44
2020/12/20 02:57:19;;;;;;;55.20;20.68;;;;;;;6.05;70.21;101861.75;1718376;83;20965;-44
2020/12/20 02:59:49;;;;;;;69.35;24.95;;;;;;;6.09;70.29;101866.25;1707656;83;20974;-44
2020/12/20 03:02:17;;;;;;;65.67;25.15;;;;;;;6.09;70.29;101866.25;1686858;82;21500;-43
2020/12/20 03:04:46;;;;;;;65.72;23.38;;;;;;;6.10;70.29;101871.45;1707030;84;20934;-43
2020/12/20 03:07:15;;;;;;;66.35;23.95;;;;;;;6.12;70.22;101872.59;1707079;84;22261;-44
2020/12/20 03:09:50;;;;;;;67.00;24.10;;;;;;;6.10;70.21;101869.27;1706598;84;21512;-49
2020/12/20 03:12:17;;;;;;;62.53;23.70;;;;;;;6.10;70.17;101867.40;1706480;84;20942;-44
2020/12/20 03:14:46;;;;;;;64.85;23.22;;;;;;;6.11;70.00;101866.88;1706401;84;21089;-44
2020/12/20 03:17:14;;;;;;;60.98;23.25;;;;;;;6.09;69.98;101872.48;1706477;83;20946;-43
2020/12/20 03:19:42;;;;;;;59.63;23.07;;;;;;;6.09;69.98;101872.48;1706440;84;21369;-44
2020/12/20 03:22:11;;;;;;;61.30;23.38;;;;;;;6.11;70.10;101873.63;1706262;83;21049;-43
2020/12/20 03:24:53;;;;;;;60.70;23.57;;;;;;;6.13;70.12;101875.13;1705540;84;21579;-43
2020/12/20 03:27:43;;;;;;;66.30;24.13;;;;;;;6.17;70.10;101873.66;1873687;75;22455;-43
2020/12/20 03:30:23;;;;;;;61.08;23.25;;;;;;;6.15;70.14;101873.56;1739598;81;20952;-43
2020/12/20 03:32:53;;;;;;;64.00;22.82;;;;;;;6.16;70.05;101877.92;1776401;80;21456;-43
2020/12/20 03:35:28;;;;;;;61.68;21.87;;;;;;;6.18;69.94;101878.55;1743220;79;20985;-42
2020/12/20 03:38:06;;;;;;;63.92;22.13;;;;;;;6.18;69.94;101878.55;1790568;79;20997;-44
2020/12/20 03:40:37;;;;;;;62.50;21.82;;;;;;;6.24;69.57;101884.02;1790680;79;21559;-43
2020/12/20 03:43:06;;;;;;;60.08;21.90;;;;;;;6.24;69.57;101884.02;1790841;78;21586;-43
2020/12/20 03:45:36;;;;;;;52.40;21.30;;;;;;;6.28;69.47;101886.30;1790121;79;21364;-44
2020/12/20 03:48:04;;;;;;;67.55;23.55;;;;;;;6.32;69.42;101899.22;1777251;80;21499;-43
2020/12/20 03:50:34;;;;;;;57.27;22.62;;;;;;;6.34;69.39;101905.28;1759538;81;21473;-43
2020/12/20 03:53:02;;;;;;;61.65;21.57;;;;;;;6.33;69.18;101900.89;1759520;81;20890;-42
2020/12/20 03:55:56;;;;;;;73.73;22.00;;;;;;;6.35;69.01;101906.11;1890056;76;23269;-43
2020/12/20 03:58:27;;;;;;;69.72;23.05;;;;;;;6.22;69.04;101901.45;1861036;77;20902;-43
2020/12/20 04:00:55;;;;;;;67.55;22.50;;;;;;;6.22;69.04;101901.45;1861118;77;22036;-44
2020/12/20 04:03:24;;;;;;;74.80;22.40;;;;;;;6.14;68.83;101910.56;1859468;77;20930;-43
2020/12/20 04:05:52;;;;;;;60.85;21.07;;;;;;;6.08;68.98;101908.63;1861064;77;20906;-43
2020/12/20 04:08:20;;;;;;;62.35;23.47;;;;;;;6.04;68.99;101906.55;1860945;77;21135;-43
2020/12/20 04:10:49;;;;;;;67.22;24.45;;;;;;;5.95;69.27;101924.24;1858869;77;21543;-44
2020/12/20 04:13:17;;;;;;;63.45;24.65;;;;;;;5.95;69.27;101924.24;1860952;77;21584;-43
2020/12/20 04:15:46;;;;;;;57.25;21.42;;;;;;;5.97;69.48;101928.09;1860859;77;20927;-43
2020/12/20 04:18:13;;;;;;;57.90;21.77;;;;;;;5.97;69.59;101927.56;1827682;77;20891;-43
2020/12/20 04:20:42;;;;;;;56.40;21.37;;;;;;;5.96;69.67;101931.83;1860946;77;20914;-43
2020/12/20 04:23:09;;;;;;;60.75;19.55;;;;;;;5.97;69.76;101930.27;1860944;77;20970;-43
2020/12/20 04:25:39;;;;;;;67.60;21.02;;;;;;;5.94;69.79;101936.09;1860024;77;21136;-44
2020/12/20 04:28:09;;;;;;;49.67;20.43;;;;;;;5.95;69.66;101938.27;1846108;77;20994;-43
2020/12/20 04:30:37;;;;;;;47.70;19.30;;;;;;;5.94;69.81;101937.95;1860920;77;21010;-42
2020/12/20 04:33:07;;;;;;;47.27;18.92;;;;;;;5.96;69.82;101946.69;1860424;77;21603;-44
2020/12/20 04:35:36;;;;;;;47.43;19.62;;;;;;;5.97;69.86;101943.78;1861013;77;20891;-43
2020/12/20 04:38:04;;;;;;;55.80;21.07;;;;;;;5.97;69.81;101945.13;1860857;77;21386;-43
2020/12/20 04:40:33;;;;;;;50.17;19.65;;;;;;;5.95;69.77;101942.31;1859662;77;20899;-43
2020/12/20 04:43:04;;;;;;;47.40;19.70;;;;;;;5.95;69.77;101949.91;1828152;77;21005;-44
2020/12/20 04:45:33;;;;;;;52.55;19.90;;;;;;;5.95;69.76;101951.78;1860395;77;20883;-43
2020/12/20 04:48:03;;;;;;;44.03;18.85;;;;;;;5.96;69.61;101950.73;1814102;78;21085;-43
2020/12/20 04:50:33;;;;;;;42.70;17.98;;;;;;;5.96;69.61;101950.73;1826955;78;21476;-43
2020/12/20 04:53:00;;;;;;;41.25;17.70;;;;;;;6.00;69.51;101961.48;1827188;78;21501;-43
2020/12/20 04:56:02;;;;;;;45.00;21.07;;;;;;;6.04;69.60;101957.36;1863464;75;27804;-43
2020/12/20 04:58:34;;;;;;;35.70;16.25;;;;;;;6.06;69.54;101967.97;1787465;80;20960;-43
2020/12/20 05:01:02;;;;;;;41.00;17.05;;;;;;;6.11;69.43;101967.69;1779818;79;21382;-43
2020/12/20 05:03:29;;;;;;;45.50;19.02;;;;;;;6.11;69.49;101965.52;1782156;79;20894;-43
2020/12/20 05:05:57;;;;;;;41.92;18.05;;;;;;;6.11;69.44;101968.21;1757422;80;21063;-43
2020/12/20 05:08:25;;;;;;;45.50;19.73;;;;;;;6.09;69.50;101964.88;1745286;80;20909;-43
2020/12/20 05:10:54;;;;;;;38.23;18.27;;;;;;;6.09;69.44;101963.53;1791417;80;20984;-43
2020/12/20 05:13:23;;;;;;;41.70;18.80;;;;;;;6.09;69.54;101971.12;1815465;78;22283;-43
2020/12/20 05:15:52;;;;;;;48.98;20.00;;;;;;;6.11;69.53;101967.69;1737171;80;21004;-43
2020/12/20 05:18:23;;;;;;;40.38;19.52;;;;;;;6.11;69.53;101967.69;1800566;78;20984;-43
2020/12/20 05:21:02;;;;;;;45.12;20.75;;;;;;;6.11;69.49;101969.56;1787059;79;21103;-44
2020/12/20 05:23:30;;;;;;;45.80;21.07;;;;;;;6.09;69.48;101976.52;1821928;78;21141;-43
2020/12/20 05:26:05;;;;;;;45.63;20.02;;;;;;;6.07;69.55;101977.73;1778356;79;21542;-42
2020/12/20 05:28:35;;;;;;;48.65;21.90;;;;;;;6.05;69.56;101971.19;1826036;78;20984;-43
2020/12/20 05:31:09;;;;;;;37.98;19.82;;;;;;;6.06;69.71;101972.84;1790864;80;21503;-44
2020/12/20 05:33:42;;;;;;;33.35;16.75;;;;;;;6.06;69.71;101972.84;1818717;78;21143;-44
2020/12/20 05:36:23;;;;;;;34.88;15.68;;;;;;;6.08;69.53;101977.53;1786485;79;21048;-43
2020/12/20 05:38:51;;;;;;;32.85;14.80;;;;;;;6.08;69.61;101982.94;1781122;79;21919;-43
2020/12/20 05:41:29;;;;;;;28.02;12.98;;;;;;;6.11;69.58;101980.38;1780169;79;20972;-43
2020/12/20 05:44:25;;;;;;;30.65;12.90;;;;;;;6.12;69.55;101980.69;1792178;79;20929;-43
2020/12/20 05:46:55;;;;;;;29.72;12.63;;;;;;;6.12;69.53;101982.87;1815478;78;20945;-44
2020/12/20 05:49:24;;;;;;;29.50;12.80;;;;;;;6.12;69.42;101985.57;1781618;79;21526;-45
2020/12/20 05:52:07;;;;;;;26.75;11.83;;;;;;;6.12;69.37;101988.80;1782959;79;21220;-44
2020/12/20 05:54:39;;;;;;;25.40;11.70;;;;;;;6.12;69.41;101986.09;1781653;80;20941;-44
2020/12/20 05:57:16;;;;;;;25.55;11.20;;;;;;;6.13;69.41;101994.51;1780374;79;20941;-44
2020/12/20 05:59:52;;;;;;;28.45;11.88;;;;;;;6.12;69.62;102000.44;1788837;79;20949;-43
2020/12/20 06:02:20;;;;;;;20.95;9.70;;;;;;;6.12;69.62;102000.44;1757932;80;21474;-44
2020/12/20 06:04:50;;;;;;;30.10;12.23;;;;;;;6.14;69.55;101997.56;1785375;79;22223;-45
2020/12/20 06:07:18;;;;;;;24.07;10.55;;;;;;;6.15;69.57;102000.58;1784788;79;21123;-43
2020/12/20 06:09:58;;;;;;;21.90;10.23;;;;;;;6.15;69.50;102004.11;1786784;79;21494;-43
2020/12/20 06:12:30;;;;;;;23.65;10.93;;;;;;;6.17;69.49;102007.95;1781781;79;21491;-43
2020/12/20 06:14:59;;;;;;;26.97;11.10;;;;;;;6.16;69.47;102008.48;1780147;79;21149;-42
2020/12/20 06:17:28;;;;;;;23.00;10.55;;;;;;;6.18;69.39;102016.37;1785877;79;21380;-43
2020/12/20 06:20:04;;;;;;;30.45;12.20;;;;;;;6.16;69.31;102020.64;1781493;79;21476;-44
2020/12/20 06:22:35;;;;;;;26.17;10.98;;;;;;;6.16;69.31;102020.64;1779509;79;21087;-44
2020/12/20 06:25:06;;;;;;;24.65;11.15;;;;;;;6.17;69.42;102020.95;1793502;79;21017;-43
2020/12/20 06:27:35;;;;;;;21.52;10.23;;;;;;;6.20;69.46;102022.45;1779800;79;21211;-44
2020/12/20 06:30:06;;;;;;;21.62;10.55;;;;;;;6.20;69.42;102029.20;1776750;79;22468;-44
2020/12/20 06:32:40;;;;;;;24.57;10.63;;;;;;;6.19;69.37;102029.72;1781468;80;20965;-43
2020/12/20 06:35:29;;;;;;;25.75;11.30;;;;;;;6.18;69.44;102026.70;1781436;80;21029;-43
2020/12/20 06:37:57;;;;;;;22.00;10.10;;;;;;;6.17;69.48;102029.06;1788781;79;20936;-45
2020/12/20 06:40:37;;;;;;;21.77;10.20;;;;;;;6.18;69.46;102032.59;1789116;79;21013;-43
2020/12/20 06:43:05;;;;;;;21.60;10.32;;;;;;;6.18;69.43;102034.81;1781607;80;21374;-44
2020/12/20 06:45:45;;;;;;;21.90;9.88;;;;;;;6.18;69.28;102032.11;1777596;79;20961;-44
2020/12/20 06:48:13;;;;;;;20.25;10.15;;;;;;;6.17;69.18;102041.22;1749624;80;21115;-43
2020/12/20 06:50:49;;;;;;;19.92;9.13;;;;;;;6.17;69.18;102041.22;1746647;80;21601;-43
2020/12/20 06:53:18;;;;;;;22.60;9.75;;;;;;;6.18;69.35;102046.98;1793576;80;21471;-44
2020/12/20 06:55:46;;;;;;;19.90;9.63;;;;;;;6.18;69.33;102046.98;1788438;79;21365;-45
2020/12/20 06:58:18;;;;;;;17.73;8.20;;;;;;;6.20;69.32;102042.72;1788663;79;20957;-44
2020/12/20 07:00:51;;;;;;;18.60;9.95;;;;;;;6.20;69.31;102043.55;1784257;79;21072;-44
2020/12/20 07:03:38;;;;;;;20.82;9.90;;;;;;;6.22;69.25;102041.47;1778453;80;21176;-44
2020/12/20 07:06:13;;;;;;;20.62;10.28;;;;;;;6.27;69.11;102043.59;1783081;79;21096;-43
2020/12/20 07:09:00;;;;;;;21.33;9.75;;;;;;;6.30;69.13;102041.03;1787609;79;21387;-44
2020/12/20 07:11:28;;;;;;;20.77;9.25;;;;;;;6.30;68.92;102036.45;1781201;79;21072;-45
2020/12/20 07:13:58;;;;;;;16.37;8.08;;;;;;;6.32;68.87;102030.84;1781350;80;20930;-45
2020/12/20 07:16:39;;;;;;;15.65;7.75;;;;;;;6.30;68.97;102035.11;1780256;79;21472;-44
2020/12/20 07:19:07;;;;;;;15.08;7.12;;;;;;;6.29;69.05;102038.84;1780214;80;21453;-43
2020/12/20 07:21:46;;;;;;;14.38;7.47;;;;;;;6.30;68.99;102039.69;1779939;80;21265;-43
2020/12/20 07:24:20;;;;;;;16.42;7.75;;;;;;;6.27;69.11;102049.00;1780856;80;21013;-46
2020/12/20 07:26:51;;;;;;;10.55;5.90;;;;;;;6.27;69.11;102049.00;1776884;80;21515;-43
2020/12/20 07:29:20;;;;;;;13.53;7.17;;;;;;;6.30;69.09;102047.27;1781447;80;20953;-44
2020/12/20 07:31:54;;;;;;;14.28;7.45;;;;;;;6.35;69.14;102046.17;1774400;79;21766;-45
2020/12/20 07:34:23;;;;;;;13.22;7.05;;;;;;;6.36;69.11;102051.05;1781407;79;21333;-44
2020/12/20 07:36:52;;;;;;;11.65;6.67;;;;;;;6.37;69.20;102054.91;1780318;79;21622;-44
2020/12/20 07:39:20;;;;;;;11.53;6.42;;;;;;;6.38;69.01;102053.03;1782440;79;20952;-44
2020/12/20 07:41:48;;;;;;;11.55;7.22;;;;;;;6.37;69.00;102056.78;1777182;80;21511;-44
2020/12/20 07:44:16;;;;;;;12.20;6.97;;;;;;;6.38;69.07;102056.57;1784581;79;20921;-45
2020/12/20 07:46:45;;;;;;;13.48;6.85;;;;;;;6.40;69.08;102060.45;1792944;79;21351;-41
2020/12/20 07:49:14;;;;;;;11.85;6.97;;;;;;;6.39;68.97;102058.27;1781400;80;21563;-44
2020/12/20 07:51:42;;;;;;;13.98;7.67;;;;;;;6.40;68.88;102059.10;1782180;79;21044;-46
2020/12/20 07:54:14;;;;;;;12.50;6.70;;;;;;;6.41;68.89;102058.90;1788681;79;21494;-45
2020/12/20 07:56:47;;;;;;;9.55;6.10;;;;;;;6.45;68.73;102062.89;1788027;79;21067;-44
2020/12/20 07:59:18;;;;;;;12.28;7.47;;;;;;;6.48;68.57;102057.06;1781563;80;22113;-43
2020/12/20 08:01:48;;;;;;;12.60;7.53;;;;;;;6.48;68.48;102058.42;1740672;80;21510;-45
2020/12/20 08:04:18;;;;;;;12.75;7.05;;;;;;;6.46;68.25;102059.66;1793385;80;21104;-48
2020/12/20 08:06:52;;;;;;;11.78;6.72;;;;;;;6.46;68.33;102057.80;1786408;79;21164;-45
2020/12/20 08:09:27;;;;;;;11.35;6.00;;;;;;;6.45;68.44;102062.89;1783552;80;21037;-45
2020/12/20 08:11:58;;;;;;;11.00;5.60;;;;;;;6.47;68.48;102063.52;1778034;80;21118;-44
2020/12/20 08:14:29;;;;;;;4.45;2.83;;;;;;;6.54;68.01;102070.34;1782743;80;21080;-45
2020/12/20 08:17:02;;;;;;;3.00;2.20;;;;;;;6.54;68.01;102070.34;1782435;79;21067;-45
2020/12/20 08:19:32;;;;;;;3.25;2.12;;;;;;;6.59;67.36;102067.02;1783212;79;20937;-44
2020/12/20 08:22:13;;;;;;;4.05;2.20;;;;;;;6.61;67.23;102079.85;1783308;79;20906;-45
2020/12/20 08:24:42;;;;;;;3.77;2.22;;;;;;;6.62;66.87;102078.30;1787269;80;21366;-45
2020/12/20 08:27:25;;;;;;;3.37;2.10;;;;;;;6.63;66.74;102075.07;1780447;79;21662;-43
2020/12/20 08:30:00;;;;;;;4.08;2.25;;;;;;;6.61;66.59;102074.45;1780467;79;21067;-45
2020/12/20 08:32:41;;;;;;;19.55;4.92;;;;;;;6.59;66.50;102078.70;1786173;80;20995;-45
2020/12/20 08:35:20;;;;;;;8.63;4.00;;;;;;;6.59;66.45;102074.66;1791510;79;20893;-44
2020/12/20 08:37:53;;;;;;;5.28;2.80;;;;;;;6.60;66.42;102076.31;1787939;79;21207;-47
2020/12/20 08:40:21;;;;;;;3.35;2.42;;;;;;;6.56;66.47;102076.91;1771638;80;21072;-46
2020/12/20 08:42:55;;;;;;;4.30;2.70;;;;;;;6.54;66.60;102069.00;1767028;80;21128;-48
2020/12/20 08:45:23;;;;;;;4.05;2.55;;;;;;;6.54;66.68;102073.54;1731278;80;21567;-50
2020/12/20 08:48:04;;;;;;;7.22;5.55;;;;;;;6.56;66.64;102080.95;1767300;80;21159;-50
2020/12/20 08:50:34;;;;;;;4.10;3.22;;;;;;;6.57;66.60;102071.29;1728233;81;21361;-46
2020/12/20 08:53:06;;;;;;;5.87;3.08;;;;;;;6.56;66.68;102072.33;1742946;81;21652;-46
2020/12/20 08:55:35;;;;;;;3.90;3.02;;;;;;;6.57;66.46;102069.94;1732402;80;21295;-46
2020/12/20 08:58:06;;;;;;;4.75;3.40;;;;;;;6.56;66.41;102066.09;1753964;81;21601;-45
2020/12/20 09:00:38;;;;;;;5.65;3.67;;;;;;;6.56;66.46;102067.44;1765127;80;21574;-46
2020/12/20 09:03:09;;;;;;;6.50;3.80;;;;;;;6.53;66.38;102064.59;1735911;81;21213;-47
2020/12/20 09:05:40;;;;;;;5.53;3.00;;;;;;;6.53;66.33;102071.36;1742580;81;21524;-46
2020/12/20 09:08:09;;;;;;;5.28;3.42;;;;;;;6.50;66.42;102061.78;1745571;81;21120;-45
2020/12/20 09:10:37;;;;;;;5.78;3.47;;;;;;;6.49;66.43;102066.88;1732088;82;20984;-46
2020/12/20 09:13:08;;;;;;;5.65;3.20;;;;;;;6.48;66.27;102057.06;1713854;81;21528;-53
2020/12/20 09:15:39;;;;;;;5.25;3.45;;;;;;;6.46;66.24;102056.44;1733505;81;21214;-45
2020/12/20 09:18:25;;;;;;;6.03;4.62;;;;;;;6.47;66.23;102059.98;1718110;81;21120;-47
2020/12/20 09:20:56;;;;;;;4.72;3.40;;;;;;;6.46;66.04;102065.91;1748400;81;21070;-46
2020/12/20 09:23:25;;;;;;;5.95;3.83;;;;;;;6.46;66.04;102065.91;1746072;81;21160;-45
2020/12/20 09:26:00;;;;;;;7.10;4.17;;;;;;;6.45;66.02;102068.81;1750089;81;21116;-44
2020/12/20 09:28:32;;;;;;;5.97;4.70;;;;;;;6.44;65.94;102067.98;1751978;81;21429;-45
2020/12/20 09:31:03;;;;;;;7.67;5.03;;;;;;;6.43;66.06;102071.69;1752231;81;21226;-45
2020/12/20 09:33:39;;;;;;;7.65;4.95;;;;;;;6.42;66.23;102064.62;1753018;81;21060;-46
2020/12/20 09:36:15;;;;;;;8.73;5.47;;;;;;;6.41;66.21;102067.01;1747192;81;21269;-46
2020/12/20 09:38:46;;;;;;;8.38;5.35;;;;;;;6.42;66.27;102071.38;1751735;81;21119;-44
2020/12/20 09:41:21;;;;;;;8.38;5.35;;;;;;;6.43;66.34;102069.51;1718589;81;22320;-44
2020/12/20 09:43:51;;;;;;;7.90;5.67;;;;;;;6.42;66.44;102067.32;1751119;80;21079;-45
2020/12/20 09:46:29;;;;;;;8.68;5.30;;;;;;;6.39;66.05;102073.66;1714303;82;21195;-46
2020/12/20 09:48:59;;;;;;;10.25;6.28;;;;;;;6.38;66.46;102076.02;1745620;81;21246;-43
2020/12/20 09:51:32;;;;;;;10.95;7.08;;;;;;;6.40;66.66;102079.38;1720277;82;21096;-44
2020/12/20 09:54:00;;;;;;;12.82;7.37;;;;;;;6.43;66.83;102084.37;1763305;80;21541;-44
2020/12/20 09:56:28;;;;;;;11.18;7.45;;;;;;;6.43;66.88;102081.16;1752162;80;21113;-46
2020/12/20 09:58:56;;;;;;;9.38;7.10;;;;;;;6.45;66.81;102076.92;1733286;82;21078;-44
2020/12/20 10:01:28;;;;;;;11.78;7.45;;;;;;;6.45;66.79;102083.69;1752251;81;21100;-49
2020/12/20 10:03:58;;;;;;;9.95;7.00;;;;;;;6.46;66.71;102084.83;1763816;81;21067;-44
2020/12/20 10:06:26;;;;;;;14.15;8.73;;;;;;;6.48;66.56;102079.22;1752150;81;21357;-45
2020/12/20 10:09:00;;;;;;;16.50;9.70;;;;;;;6.46;66.58;102079.95;1733291;82;21030;-45
2020/12/20 10:11:28;;;;;;;18.40;10.08;;;;;;;6.44;66.54;102076.09;1752064;81;21082;-45
2020/12/20 10:13:56;;;;;;;16.62;10.32;;;;;;;6.43;66.69;102079.80;1736970;81;21072;-45
2020/12/20 10:16:37;;;;;;;20.20;11.73;;;;;;;6.46;66.69;102070.48;1873642;76;22683;-46
2020/12/20 10:19:10;;;;;;;16.75;10.53;;;;;;;6.41;66.83;102071.06;1841590;78;20935;-45
2020/12/20 10:21:39;;;;;;;32.45;14.25;;;;;;;6.40;67.33;102069.40;1841554;77;22168;-45
2020/12/20 10:24:07;;;;;;;23.95;12.95;;;;;;;6.39;67.00;102071.79;1841527;77;21557;-45
2020/12/20 10:26:40;;;;;;;21.50;12.35;;;;;;;6.39;66.60;102063.68;1841629;77;21411;-45
2020/12/20 10:29:10;;;;;;;22.55;11.65;;;;;;;6.41;67.06;102070.23;1841528;77;21022;-46
2020/12/20 10:31:44;;;;;;;20.62;12.70;;;;;;;6.42;67.03;102059.73;1841576;78;21014;-46
2020/12/20 10:34:15;;;;;;;21.27;12.82;;;;;;;6.42;67.03;102059.73;1812700;78;21349;-46
2020/12/20 10:36:44;;;;;;;24.05;12.78;;;;;;;6.41;67.07;102058.06;1841491;77;20920;-46
2020/12/20 10:39:21;;;;;;;21.87;12.13;;;;;;;6.39;67.13;102060.97;1841536;78;20943;-48
2020/12/20 10:42:15;;;;;;;20.05;11.68;;;;;;;6.39;67.12;102054.22;1841580;77;21473;-47
2020/12/20 10:44:49;;;;;;;19.42;11.97;;;;;;;6.39;67.12;102054.22;1840353;77;21553;-47
2020/12/20 10:47:24;;;;;;;20.37;11.20;;;;;;;6.41;67.13;102044.55;1828154;78;21309;-53
2020/12/20 10:49:54;;;;;;;24.47;12.00;;;;;;;6.39;67.12;102050.16;1785420;79;20919;-48
2020/12/20 10:52:26;;;;;;;21.27;12.33;;;;;;;6.34;67.13;102051.78;1718806;82;20976;-51
2020/12/20 10:54:58;;;;;;;21.05;11.25;;;;;;;6.37;67.33;102060.31;1729475;81;21509;-49
2020/12/20 10:57:27;;;;;;;21.57;12.58;;;;;;;6.37;67.33;102060.31;1711776;81;21656;-50
2020/12/20 11:00:00;;;;;;;23.98;13.20;;;;;;;6.40;67.33;102059.94;1742329;81;21698;-53
2020/12/20 11:02:31;;;;;;;20.88;11.48;;;;;;;6.42;67.37;102059.73;1706278;82;21553;-54
2020/12/20 11:05:00;;;;;;;20.65;12.05;;;;;;;6.43;67.17;102055.47;1741786;80;20981;-51
2020/12/20 11:07:29;;;;;;;21.33;11.45;;;;;;;6.38;67.03;102055.73;1739535;80;21024;-49
2020/12/20 11:09:58;;;;;;;18.82;10.00;;;;;;;6.37;67.17;102054.08;1746726;80;21605;-48
2020/12/20 11:12:28;;;;;;;19.15;11.65;;;;;;;6.35;67.13;102053.45;1733649;82;21352;-50
2020/12/20 11:15:02;;;;;;;20.25;11.40;;;;;;;6.35;67.16;102063.74;1730241;80;21683;-54
2020/12/20 11:17:31;;;;;;;19.50;11.28;;;;;;;6.35;67.26;102058.34;1726807;81;20959;-49
2020/12/20 11:19:59;;;;;;;20.23;10.93;;;;;;;6.37;67.14;102054.91;1734729;82;21041;-49
2020/12/20 11:22:30;;;;;;;16.35;10.58;;;;;;;6.37;67.14;102054.91;1734572;81;21074;-51
2020/12/20 11:25:00;;;;;;;22.15;11.83;;;;;;;6.39;67.05;102061.49;1733657;81;21165;-48
2020/12/20 11:27:28;;;;;;;18.67;11.25;;;;;;;6.39;67.01;102061.49;1734318;82;21038;-51
2020/12/20 11:30:00;;;;;;;22.02;11.43;;;;;;;6.38;67.05;102066.03;1734176;81;21000;-48
2020/12/20 11:32:34;;;;;;;18.48;10.72;;;;;;;6.40;67.11;102066.70;1706411;81;21154;-48
2020/12/20 11:35:06;;;;;;;19.10;11.15;;;;;;;6.39;67.07;102064.20;1721083;81;21074;-48
2020/12/20 11:37:36;;;;;;;18.30;11.00;;;;;;;6.42;67.02;102070.55;1717759;82;21382;-49
2020/12/20 11:40:05;;;;;;;18.42;10.50;;;;;;;6.41;67.00;102068.36;1699475;83;20964;-47
2020/12/20 11:42:36;;;;;;;16.67;9.65;;;;;;;6.39;66.96;102066.38;1717423;82;21409;-47